KCWI

Clinton Municipal Airport

Clinton, Iowa, USA
METAR KCWI 151856Z AUTO 25017KT 10SM FEW029 OVC060 01/M06 A2991 RMK AO2 UPE06 SLP158 P0000 T00061056 FZRANO
Observed Flight Rules
Dec-15 @ 18:56 UTC (52 minutes ago) Visual Flight Rules
Wind Visibility Clouds
250° at 17 knots 10 miles
  • Few at 2,900' AGL
  • Overcast at 6,000' AGL
Temperatures Readings Precipitation
Current 1°C / 34°F
Dewpoint -6°C / 21°F
Humidity 60%
Altimeter 29.91" Hg
Pressure 1015.8 hPa
Elevation 216
Current Rain 0.005
METAR KCWI 151856Z AUTO 25017KT 10SM FEW029 OVC060 01/M06 A2991 RMK AO2 UPE06 SLP158 P0000 T00061056 FZRANO
Observed Flight Rules
Dec-15 @ 18:56 UTC
(52 minutes ago)
VFR
Wind Visibility
250° at 17 knots 10 miles
Clouds
  • Few at 2,900' AGL
  • Overcast at 6,000' AGL
Temperature Dewpoint
1°C / 34°F -6°C / 21°F
Humidity Altimeter Pressure
60% 29.91" Hg 1015.8 hPa
Current Rain
0.005